sensor_id;sensor_type;location;lat;lon;timestamp;P1;durP1;ratioP1;P2;durP2;ratioP2
24559;SDS011;12727;49.934;8.656;2023-04-01T00:02:06;4.05;;;0.80;;
24559;SDS011;12727;49.934;8.656;2023-04-01T00:04:32;2.58;;;0.70;;
24559;SDS011;12727;49.934;8.656;2023-04-01T00:06:58;4.07;;;0.95;;
24559;SDS011;12727;49.934;8.656;2023-04-01T00:09:24;5.63;;;0.98;;
24559;SDS011;12727;49.934;8.656;2023-04-01T00:11:50;4.72;;;1.00;;
24559;SDS011;12727;49.934;8.656;2023-04-01T00:14:15;5.13;;;0.90;;
24559;SDS011;12727;49.934;8.656;2023-04-01T00:16:41;6.30;;;0.95;;
24559;SDS011;12727;49.934;8.656;2023-04-01T00:19:06;5.70;;;0.80;;
24559;SDS011;12727;49.934;8.656;2023-04-01T00:21:32;3.33;;;0.80;;
24559;SDS011;12727;49.934;8.656;2023-04-01T00:23:58;4.40;;;0.90;;
24559;SDS011;12727;49.934;8.656;2023-04-01T00:26:24;9.60;;;0.90;;
24559;SDS011;12727;49.934;8.656;2023-04-01T00:28:50;3.58;;;0.65;;
24559;SDS011;12727;49.934;8.656;2023-04-01T00:31:16;1.98;;;0.50;;
24559;SDS011;12727;49.934;8.656;2023-04-01T00:33:42;3.30;;;0.60;;
24559;SDS011;12727;49.934;8.656;2023-04-01T00:36:09;4.47;;;0.70;;
24559;SDS011;12727;49.934;8.656;2023-04-01T00:38:36;6.50;;;0.85;;
24559;SDS011;12727;49.934;8.656;2023-04-01T00:41:03;7.32;;;0.73;;
24559;SDS011;12727;49.934;8.656;2023-04-01T00:43:29;2.85;;;0.60;;
24559;SDS011;12727;49.934;8.656;2023-04-01T00:45:55;5.38;;;0.70;;
24559;SDS011;12727;49.934;8.656;2023-04-01T00:48:31;5.93;;;0.80;;
24559;SDS011;12727;49.934;8.656;2023-04-01T00:51:07;3.70;;;0.77;;
24559;SDS011;12727;49.934;8.656;2023-04-01T00:53:44;5.43;;;0.90;;
24559;SDS011;12727;49.934;8.656;2023-04-01T00:56:14;4.53;;;0.70;;
24559;SDS011;12727;49.934;8.656;2023-04-01T00:58:44;3.75;;;0.95;;
24559;SDS011;12727;49.934;8.656;2023-04-01T01:01:13;2.20;;;0.60;;
24559;SDS011;12727;49.934;8.656;2023-04-01T01:03:39;2.55;;;0.70;;
24559;SDS011;12727;49.934;8.656;2023-04-01T01:09:03;4.22;;;0.40;;
24559;SDS011;12727;49.934;8.656;2023-04-01T01:12:01;3.50;;;0.57;;
24559;SDS011;12727;49.934;8.656;2023-04-01T01:14:45;5.28;;;1.00;;
24559;SDS011;12727;49.934;8.656;2023-04-01T01:17:50;6.38;;;0.90;;
24559;SDS011;12727;49.934;8.656;2023-04-01T01:25:53;2.28;;;0.60;;
24559;SDS011;12727;49.934;8.656;2023-04-01T01:31:20;3.45;;;0.80;;
24559;SDS011;12727;49.934;8.656;2023-04-01T01:34:11;1.98;;;0.50;;
24559;SDS011;12727;49.934;8.656;2023-04-01T01:37:03;4.35;;;0.90;;
24559;SDS011;12727;49.934;8.656;2023-04-01T01:39:34;7.82;;;1.48;;
24559;SDS011;12727;49.934;8.656;2023-04-01T01:42:03;6.68;;;0.70;;
24559;SDS011;12727;49.934;8.656;2023-04-01T01:44:31;4.57;;;0.82;;
24559;SDS011;12727;49.934;8.656;2023-04-01T01:46:59;6.43;;;0.80;;
24559;SDS011;12727;49.934;8.656;2023-04-01T01:49:25;4.75;;;0.93;;
24559;SDS011;12727;49.934;8.656;2023-04-01T01:51:55;6.80;;;1.20;;
24559;SDS011;12727;49.934;8.656;2023-04-01T01:54:21;5.20;;;1.17;;
24559;SDS011;12727;49.934;8.656;2023-04-01T01:56:47;3.28;;;0.60;;
24559;SDS011;12727;49.934;8.656;2023-04-01T01:59:16;6.50;;;0.75;;
24559;SDS011;12727;49.934;8.656;2023-04-01T02:01:46;4.18;;;0.80;;
24559;SDS011;12727;49.934;8.656;2023-04-01T02:04:15;5.18;;;0.90;;
24559;SDS011;12727;49.934;8.656;2023-04-01T02:06:45;2.50;;;0.70;;
24559;SDS011;12727;49.934;8.656;2023-04-01T02:09:14;6.05;;;0.95;;
24559;SDS011;12727;49.934;8.656;2023-04-01T02:11:56;5.70;;;0.70;;
24559;SDS011;12727;49.934;8.656;2023-04-01T02:14:26;3.88;;;0.60;;
24559;SDS011;12727;49.934;8.656;2023-04-01T02:17:00;3.22;;;0.50;;
24559;SDS011;12727;49.934;8.656;2023-04-01T02:19:28;3.50;;;0.70;;
24559;SDS011;12727;49.934;8.656;2023-04-01T02:24:27;4.15;;;0.65;;
24559;SDS011;12727;49.934;8.656;2023-04-01T02:26:56;6.15;;;0.60;;
24559;SDS011;12727;49.934;8.656;2023-04-01T02:29:22;3.65;;;0.60;;
24559;SDS011;12727;49.934;8.656;2023-04-01T02:31:50;3.85;;;0.63;;
24559;SDS011;12727;49.934;8.656;2023-04-01T02:34:18;4.90;;;0.80;;
24559;SDS011;12727;49.934;8.656;2023-04-01T02:36:46;3.97;;;0.80;;
24559;SDS011;12727;49.934;8.656;2023-04-01T02:39:13;3.72;;;0.50;;
24559;SDS011;12727;49.934;8.656;2023-04-01T02:41:39;2.55;;;0.28;;
24559;SDS011;12727;49.934;8.656;2023-04-01T02:44:06;3.45;;;0.93;;
24559;SDS011;12727;49.934;8.656;2023-04-01T02:46:32;4.57;;;0.90;;
24559;SDS011;12727;49.934;8.656;2023-04-01T02:48:58;3.38;;;1.00;;
24559;SDS011;12727;49.934;8.656;2023-04-01T02:51:25;5.65;;;1.15;;
24559;SDS011;12727;49.934;8.656;2023-04-01T02:53:51;5.88;;;0.90;;
24559;SDS011;12727;49.934;8.656;2023-04-01T02:56:17;6.88;;;0.85;;
24559;SDS011;12727;49.934;8.656;2023-04-01T02:58:44;6.18;;;1.08;;
24559;SDS011;12727;49.934;8.656;2023-04-01T03:01:10;3.67;;;0.77;;
24559;SDS011;12727;49.934;8.656;2023-04-01T03:03:36;3.25;;;0.63;;
24559;SDS011;12727;49.934;8.656;2023-04-01T03:06:08;6.05;;;0.82;;
24559;SDS011;12727;49.934;8.656;2023-04-01T03:08:36;3.10;;;0.73;;
24559;SDS011;12727;49.934;8.656;2023-04-01T03:11:01;5.22;;;0.90;;
24559;SDS011;12727;49.934;8.656;2023-04-01T03:13:27;5.28;;;0.80;;
24559;SDS011;12727;49.934;8.656;2023-04-01T03:15:53;3.88;;;0.60;;
24559;SDS011;12727;49.934;8.656;2023-04-01T03:18:18;5.60;;;1.02;;
24559;SDS011;12727;49.934;8.656;2023-04-01T03:20:44;2.35;;;0.55;;
24559;SDS011;12727;49.934;8.656;2023-04-01T03:23:10;3.90;;;0.80;;
24559;SDS011;12727;49.934;8.656;2023-04-01T03:25:36;2.80;;;0.63;;
24559;SDS011;12727;49.934;8.656;2023-04-01T03:28:01;1.05;;;0.30;;
24559;SDS011;12727;49.934;8.656;2023-04-01T03:30:27;3.60;;;0.50;;
24559;SDS011;12727;49.934;8.656;2023-04-01T03:32:56;1.52;;;0.30;;
24559;SDS011;12727;49.934;8.656;2023-04-01T03:35:22;6.50;;;0.88;;
24559;SDS011;12727;49.934;8.656;2023-04-01T03:37:48;5.35;;;0.75;;
24559;SDS011;12727;49.934;8.656;2023-04-01T03:40:15;3.72;;;0.70;;
24559;SDS011;12727;49.934;8.656;2023-04-01T03:42:40;3.10;;;0.60;;
24559;SDS011;12727;49.934;8.656;2023-04-01T03:45:06;4.75;;;0.68;;
24559;SDS011;12727;49.934;8.656;2023-04-01T03:47:32;4.18;;;0.90;;
24559;SDS011;12727;49.934;8.656;2023-04-01T03:49:58;4.15;;;0.98;;
24559;SDS011;12727;49.934;8.656;2023-04-01T03:52:23;4.60;;;0.70;;
24559;SDS011;12727;49.934;8.656;2023-04-01T03:54:49;6.15;;;0.50;;
24559;SDS011;12727;49.934;8.656;2023-04-01T03:57:15;4.72;;;0.88;;
24559;SDS011;12727;49.934;8.656;2023-04-01T03:59:40;4.95;;;0.63;;
24559;SDS011;12727;49.934;8.656;2023-04-01T04:02:06;5.60;;;0.68;;
24559;SDS011;12727;49.934;8.656;2023-04-01T04:04:32;3.90;;;0.93;;
24559;SDS011;12727;49.934;8.656;2023-04-01T04:06:57;5.40;;;0.73;;
24559;SDS011;12727;49.934;8.656;2023-04-01T04:09:23;3.10;;;0.57;;
24559;SDS011;12727;49.934;8.656;2023-04-01T04:11:49;1.77;;;0.50;;
24559;SDS011;12727;49.934;8.656;2023-04-01T04:14:14;4.85;;;1.15;;
24559;SDS011;12727;49.934;8.656;2023-04-01T04:16:40;6.15;;;0.88;;
24559;SDS011;12727;49.934;8.656;2023-04-01T04:19:06;4.78;;;0.60;;
24559;SDS011;12727;49.934;8.656;2023-04-01T04:21:32;2.20;;;0.60;;
24559;SDS011;12727;49.934;8.656;2023-04-01T04:24:00;2.97;;;0.57;;
24559;SDS011;12727;49.934;8.656;2023-04-01T04:26:26;6.93;;;0.70;;
24559;SDS011;12727;49.934;8.656;2023-04-01T04:28:53;6.05;;;0.60;;
24559;SDS011;12727;49.934;8.656;2023-04-01T04:31:19;3.55;;;0.40;;
24559;SDS011;12727;49.934;8.656;2023-04-01T04:33:47;6.38;;;0.80;;
24559;SDS011;12727;49.934;8.656;2023-04-01T04:36:13;2.92;;;0.60;;
24559;SDS011;12727;49.934;8.656;2023-04-01T04:38:38;4.13;;;0.80;;
24559;SDS011;12727;49.934;8.656;2023-04-01T04:41:08;5.68;;;1.00;;
24559;SDS011;12727;49.934;8.656;2023-04-01T04:43:34;3.50;;;0.73;;
24559;SDS011;12727;49.934;8.656;2023-04-01T04:46:03;3.72;;;0.65;;
24559;SDS011;12727;49.934;8.656;2023-04-01T04:48:31;3.58;;;0.95;;
24559;SDS011;12727;49.934;8.656;2023-04-01T04:50:56;5.28;;;0.80;;
24559;SDS011;12727;49.934;8.656;2023-04-01T04:53:22;5.43;;;0.82;;
24559;SDS011;12727;49.934;8.656;2023-04-01T04:55:48;4.45;;;0.50;;
24559;SDS011;12727;49.934;8.656;2023-04-01T04:58:15;5.22;;;0.80;;
24559;SDS011;12727;49.934;8.656;2023-04-01T05:00:41;2.85;;;0.50;;
24559;SDS011;12727;49.934;8.656;2023-04-01T05:03:07;4.13;;;0.88;;
24559;SDS011;12727;49.934;8.656;2023-04-01T05:05:34;4.03;;;0.55;;
24559;SDS011;12727;49.934;8.656;2023-04-01T05:08:00;3.90;;;0.90;;
24559;SDS011;12727;49.934;8.656;2023-04-01T05:10:25;3.78;;;0.70;;
24559;SDS011;12727;49.934;8.656;2023-04-01T05:12:51;4.35;;;0.63;;
24559;SDS011;12727;49.934;8.656;2023-04-01T05:15:17;2.40;;;0.43;;
24559;SDS011;12727;49.934;8.656;2023-04-01T05:17:43;2.97;;;0.65;;
24559;SDS011;12727;49.934;8.656;2023-04-01T05:20:08;6.53;;;0.60;;
24559;SDS011;12727;49.934;8.656;2023-04-01T05:22:36;4.53;;;0.77;;
24559;SDS011;12727;49.934;8.656;2023-04-01T05:25:02;3.50;;;0.43;;
24559;SDS011;12727;49.934;8.656;2023-04-01T05:27:27;4.25;;;0.73;;
24559;SDS011;12727;49.934;8.656;2023-04-01T05:29:53;1.90;;;0.45;;
24559;SDS011;12727;49.934;8.656;2023-04-01T05:32:18;2.10;;;0.60;;
24559;SDS011;12727;49.934;8.656;2023-04-01T05:34:44;2.38;;;0.70;;
24559;SDS011;12727;49.934;8.656;2023-04-01T05:37:10;3.28;;;0.60;;
24559;SDS011;12727;49.934;8.656;2023-04-01T05:39:38;3.80;;;0.60;;
24559;SDS011;12727;49.934;8.656;2023-04-01T05:42:07;6.05;;;0.70;;
24559;SDS011;12727;49.934;8.656;2023-04-01T05:44:33;2.60;;;0.52;;
24559;SDS011;12727;49.934;8.656;2023-04-01T05:47:00;4.40;;;0.70;;
24559;SDS011;12727;49.934;8.656;2023-04-01T05:49:26;3.58;;;0.57;;
24559;SDS011;12727;49.934;8.656;2023-04-01T05:51:51;3.70;;;0.70;;
24559;SDS011;12727;49.934;8.656;2023-04-01T05:54:17;4.57;;;0.80;;
24559;SDS011;12727;49.934;8.656;2023-04-01T05:56:43;3.10;;;0.55;;
24559;SDS011;12727;49.934;8.656;2023-04-01T05:59:09;4.90;;;0.80;;
24559;SDS011;12727;49.934;8.656;2023-04-01T06:01:36;5.13;;;0.50;;
24559;SDS011;12727;49.934;8.656;2023-04-01T06:04:02;4.63;;;0.40;;
24559;SDS011;12727;49.934;8.656;2023-04-01T06:06:28;2.95;;;0.50;;
24559;SDS011;12727;49.934;8.656;2023-04-01T06:08:56;2.40;;;0.60;;
24559;SDS011;12727;49.934;8.656;2023-04-01T06:11:34;2.47;;;0.50;;
24559;SDS011;12727;49.934;8.656;2023-04-01T06:16:48;1.95;;;0.55;;
24559;SDS011;12727;49.934;8.656;2023-04-01T06:22:08;2.67;;;1.02;;
24559;SDS011;12727;49.934;8.656;2023-04-01T06:30:24;2.47;;;0.50;;
24559;SDS011;12727;49.934;8.656;2023-04-01T06:33:06;1.48;;;0.50;;
24559;SDS011;12727;49.934;8.656;2023-04-01T06:38:49;3.05;;;0.63;;
24559;SDS011;12727;49.934;8.656;2023-04-01T06:44:32;2.47;;;0.50;;
24559;SDS011;12727;49.934;8.656;2023-04-01T06:47:28;1.45;;;0.30;;
24559;SDS011;12727;49.934;8.656;2023-04-01T06:52:50;0.40;;;0.22;;
24559;SDS011;12727;49.934;8.656;2023-04-01T06:55:51;2.03;;;0.30;;
24559;SDS011;12727;49.934;8.656;2023-04-01T07:00:49;1.90;;;0.40;;
24559;SDS011;12727;49.934;8.656;2023-04-01T07:03:36;1.48;;;0.32;;
24559;SDS011;12727;49.934;8.656;2023-04-01T07:06:11;1.42;;;0.30;;
24559;SDS011;12727;49.934;8.656;2023-04-01T07:08:51;1.58;;;0.47;;
24559;SDS011;12727;49.934;8.656;2023-04-01T07:11:28;2.90;;;0.50;;
24559;SDS011;12727;49.934;8.656;2023-04-01T07:14:04;1.92;;;0.70;;
24559;SDS011;12727;49.934;8.656;2023-04-01T07:16:48;1.98;;;0.70;;
24559;SDS011;12727;49.934;8.656;2023-04-01T07:19:23;2.33;;;0.60;;
24559;SDS011;12727;49.934;8.656;2023-04-01T07:21:52;2.92;;;0.50;;
24559;SDS011;12727;49.934;8.656;2023-04-01T07:24:21;2.97;;;0.47;;
24559;SDS011;12727;49.934;8.656;2023-04-01T07:26:52;1.85;;;0.40;;
24559;SDS011;12727;49.934;8.656;2023-04-01T07:29:20;1.67;;;0.50;;
24559;SDS011;12727;49.934;8.656;2023-04-01T07:40:02;3.53;;;0.50;;
24559;SDS011;12727;49.934;8.656;2023-04-01T07:50:54;1.85;;;0.50;;
24559;SDS011;12727;49.934;8.656;2023-04-01T07:53:31;2.53;;;0.50;;
24559;SDS011;12727;49.934;8.656;2023-04-01T07:56:10;1.70;;;0.50;;
24559;SDS011;12727;49.934;8.656;2023-04-01T07:59:12;2.08;;;0.43;;
24559;SDS011;12727;49.934;8.656;2023-04-01T08:01:49;2.17;;;0.40;;
24559;SDS011;12727;49.934;8.656;2023-04-01T08:14:51;1.95;;;0.35;;
24559;SDS011;12727;49.934;8.656;2023-04-01T08:17:32;1.13;;;0.30;;
24559;SDS011;12727;49.934;8.656;2023-04-01T08:22:42;1.42;;;0.55;;
24559;SDS011;12727;49.934;8.656;2023-04-01T08:25:20;1.83;;;0.40;;
24559;SDS011;12727;49.934;8.656;2023-04-01T08:34:15;1.15;;;0.30;;
24559;SDS011;12727;49.934;8.656;2023-04-01T08:36:49;0.98;;;0.63;;
24559;SDS011;12727;49.934;8.656;2023-04-01T08:39:24;0.85;;;0.25;;
24559;SDS011;12727;49.934;8.656;2023-04-01T08:42:16;3.58;;;0.30;;
24559;SDS011;12727;49.934;8.656;2023-04-01T08:48:04;1.85;;;0.47;;
24559;SDS011;12727;49.934;8.656;2023-04-01T08:51:08;1.33;;;0.30;;
24559;SDS011;12727;49.934;8.656;2023-04-01T08:56:35;1.08;;;0.40;;
24559;SDS011;12727;49.934;8.656;2023-04-01T09:01:54;1.55;;;0.20;;
24559;SDS011;12727;49.934;8.656;2023-04-01T09:08:07;1.60;;;0.30;;
24559;SDS011;12727;49.934;8.656;2023-04-01T09:13:25;1.05;;;0.30;;
24559;SDS011;12727;49.934;8.656;2023-04-01T09:21:36;1.13;;;0.50;;
24559;SDS011;12727;49.934;8.656;2023-04-01T09:27:44;1.08;;;0.28;;
24559;SDS011;12727;49.934;8.656;2023-04-01T09:32:45;1.40;;;0.40;;
24559;SDS011;12727;49.934;8.656;2023-04-01T09:35:21;1.02;;;0.30;;
24559;SDS011;12727;49.934;8.656;2023-04-01T09:43:25;1.75;;;0.22;;
24559;SDS011;12727;49.934;8.656;2023-04-01T09:46:04;1.42;;;0.30;;
24559;SDS011;12727;49.934;8.656;2023-04-01T09:51:15;0.73;;;0.30;;
24559;SDS011;12727;49.934;8.656;2023-04-01T09:53:59;3.10;;;0.32;;
24559;SDS011;12727;49.934;8.656;2023-04-01T10:08:27;1.83;;;0.30;;
24559;SDS011;12727;49.934;8.656;2023-04-01T10:14:33;0.40;;;0.30;;
24559;SDS011;12727;49.934;8.656;2023-04-01T10:19:42;0.22;;;0.15;;
24559;SDS011;12727;49.934;8.656;2023-04-01T10:28:35;0.70;;;0.30;;
24559;SDS011;12727;49.934;8.656;2023-04-01T10:45:38;2.40;;;1.30;;
24559;SDS011;12727;49.934;8.656;2023-04-01T10:57:37;0.82;;;0.40;;
24559;SDS011;12727;49.934;8.656;2023-04-01T11:05:48;1.80;;;0.40;;
24559;SDS011;12727;49.934;8.656;2023-04-01T11:29:09;0.50;;;0.40;;
24559;SDS011;12727;49.934;8.656;2023-04-01T11:31:55;0.63;;;0.38;;
24559;SDS011;12727;49.934;8.656;2023-04-01T11:40:29;0.60;;;0.30;;
24559;SDS011;12727;49.934;8.656;2023-04-01T11:43:18;0.60;;;0.30;;
24559;SDS011;12727;49.934;8.656;2023-04-01T11:46:10;1.48;;;0.40;;
24559;SDS011;12727;49.934;8.656;2023-04-01T11:56:59;1.08;;;0.60;;
24559;SDS011;12727;49.934;8.656;2023-04-01T11:59:56;0.55;;;0.40;;
24559;SDS011;12727;49.934;8.656;2023-04-01T12:03:08;0.30;;;0.30;;
24559;SDS011;12727;49.934;8.656;2023-04-01T12:08:31;1.75;;;0.50;;
24559;SDS011;12727;49.934;8.656;2023-04-01T12:11:17;0.47;;;0.40;;
24559;SDS011;12727;49.934;8.656;2023-04-01T12:19:26;0.85;;;0.50;;
24559;SDS011;12727;49.934;8.656;2023-04-01T12:22:23;3.03;;;0.50;;
24559;SDS011;12727;49.934;8.656;2023-04-01T12:24:49;0.45;;;0.45;;
24559;SDS011;12727;49.934;8.656;2023-04-01T12:30:30;0.70;;;0.50;;
24559;SDS011;12727;49.934;8.656;2023-04-01T12:35:39;0.50;;;0.40;;
24559;SDS011;12727;49.934;8.656;2023-04-01T12:38:30;0.90;;;0.55;;
24559;SDS011;12727;49.934;8.656;2023-04-01T12:41:32;1.05;;;0.40;;
24559;SDS011;12727;49.934;8.656;2023-04-01T12:44:19;1.35;;;0.57;;
24559;SDS011;12727;49.934;8.656;2023-04-01T12:49:53;1.77;;;0.60;;
24559;SDS011;12727;49.934;8.656;2023-04-01T13:01:03;0.63;;;0.38;;
24559;SDS011;12727;49.934;8.656;2023-04-01T13:06:16;0.28;;;0.22;;
24559;SDS011;12727;49.934;8.656;2023-04-01T13:09:53;0.22;;;0.10;;
24559;SDS011;12727;49.934;8.656;2023-04-01T13:15:09;1.27;;;0.40;;
24559;SDS011;12727;49.934;8.656;2023-04-01T13:18:18;0.60;;;0.35;;
24559;SDS011;12727;49.934;8.656;2023-04-01T13:21:18;1.40;;;0.43;;
24559;SDS011;12727;49.934;8.656;2023-04-01T13:26:36;1.52;;;0.20;;
24559;SDS011;12727;49.934;8.656;2023-04-01T13:29:27;0.50;;;0.27;;
24559;SDS011;12727;49.934;8.656;2023-04-01T13:34:49;0.70;;;0.30;;
24559;SDS011;12727;49.934;8.656;2023-04-01T13:41:15;0.50;;;0.30;;
24559;SDS011;12727;49.934;8.656;2023-04-01T14:16:37;0.40;;;0.30;;
24559;SDS011;12727;49.934;8.656;2023-04-01T14:21:58;0.75;;;0.40;;
24559;SDS011;12727;49.934;8.656;2023-04-01T14:30:52;0.30;;;0.30;;
24559;SDS011;12727;49.934;8.656;2023-04-01T14:33:57;0.60;;;0.20;;
24559;SDS011;12727;49.934;8.656;2023-04-01T14:47:49;1.27;;;0.20;;
24559;SDS011;12727;49.934;8.656;2023-04-01T14:50:25;0.52;;;0.17;;
24559;SDS011;12727;49.934;8.656;2023-04-01T15:00:46;0.40;;;0.20;;
24559;SDS011;12727;49.934;8.656;2023-04-01T15:03:24;0.73;;;0.30;;
24559;SDS011;12727;49.934;8.656;2023-04-01T15:25:55;1.38;;;0.20;;
24559;SDS011;12727;49.934;8.656;2023-04-01T15:31:16;1.00;;;0.30;;
24559;SDS011;12727;49.934;8.656;2023-04-01T15:37:12;0.68;;;0.20;;
24559;SDS011;12727;49.934;8.656;2023-04-01T15:42:46;0.50;;;0.20;;
24559;SDS011;12727;49.934;8.656;2023-04-01T15:48:13;0.55;;;0.20;;
24559;SDS011;12727;49.934;8.656;2023-04-01T16:00:02;0.20;;;0.17;;
24559;SDS011;12727;49.934;8.656;2023-04-01T16:10:40;0.70;;;0.20;;
24559;SDS011;12727;49.934;8.656;2023-04-01T16:18:41;0.80;;;0.20;;
24559;SDS011;12727;49.934;8.656;2023-04-01T16:21:24;0.38;;;0.20;;
24559;SDS011;12727;49.934;8.656;2023-04-01T16:24:13;0.30;;;0.20;;
24559;SDS011;12727;49.934;8.656;2023-04-01T16:26:48;2.70;;;0.30;;
24559;SDS011;12727;49.934;8.656;2023-04-01T16:29:36;0.98;;;0.60;;
24559;SDS011;12727;49.934;8.656;2023-04-01T16:35:04;0.38;;;0.20;;
24559;SDS011;12727;49.934;8.656;2023-04-01T16:37:46;0.65;;;0.10;;
24559;SDS011;12727;49.934;8.656;2023-04-01T16:43:25;0.30;;;0.20;;
24559;SDS011;12727;49.934;8.656;2023-04-01T16:45:59;1.42;;;0.40;;
24559;SDS011;12727;49.934;8.656;2023-04-01T16:59:40;0.55;;;0.28;;
24559;SDS011;12727;49.934;8.656;2023-04-01T17:02:21;0.82;;;0.25;;
24559;SDS011;12727;49.934;8.656;2023-04-01T17:04:57;0.73;;;0.32;;
24559;SDS011;12727;49.934;8.656;2023-04-01T17:10:52;1.17;;;0.55;;
24559;SDS011;12727;49.934;8.656;2023-04-01T17:27:13;1.00;;;0.50;;
24559;SDS011;12727;49.934;8.656;2023-04-01T17:30:08;0.50;;;0.30;;
24559;SDS011;12727;49.934;8.656;2023-04-01T17:33:00;0.95;;;0.30;;
24559;SDS011;12727;49.934;8.656;2023-04-01T17:38:49;1.58;;;0.30;;
24559;SDS011;12727;49.934;8.656;2023-04-01T17:44:46;0.55;;;0.30;;
24559;SDS011;12727;49.934;8.656;2023-04-01T17:47:17;0.77;;;0.40;;
24559;SDS011;12727;49.934;8.656;2023-04-01T17:50:22;1.30;;;0.30;;
24559;SDS011;12727;49.934;8.656;2023-04-01T17:58:44;1.15;;;0.60;;
24559;SDS011;12727;49.934;8.656;2023-04-01T18:04:10;1.52;;;0.47;;
24559;SDS011;12727;49.934;8.656;2023-04-01T18:07:31;1.50;;;0.38;;
24559;SDS011;12727;49.934;8.656;2023-04-01T18:21:34;0.93;;;0.47;;
24559;SDS011;12727;49.934;8.656;2023-04-01T18:27:21;1.60;;;0.50;;
24559;SDS011;12727;49.934;8.656;2023-04-01T18:32:34;0.95;;;0.32;;
24559;SDS011;12727;49.934;8.656;2023-04-01T18:38:16;0.95;;;0.30;;
24559;SDS011;12727;49.934;8.656;2023-04-01T18:41:07;0.65;;;0.30;;
24559;SDS011;12727;49.934;8.656;2023-04-01T18:43:46;1.20;;;0.43;;
24559;SDS011;12727;49.934;8.656;2023-04-01T18:46:39;1.70;;;0.50;;
24559;SDS011;12727;49.934;8.656;2023-04-01T18:49:15;2.25;;;0.38;;
24559;SDS011;12727;49.934;8.656;2023-04-01T18:52:03;0.50;;;0.28;;
24559;SDS011;12727;49.934;8.656;2023-04-01T18:54:40;0.73;;;0.45;;
24559;SDS011;12727;49.934;8.656;2023-04-01T18:57:15;5.25;;;1.70;;
24559;SDS011;12727;49.934;8.656;2023-04-01T18:59:45;0.88;;;0.40;;
24559;SDS011;12727;49.934;8.656;2023-04-01T19:02:38;1.25;;;0.40;;
24559;SDS011;12727;49.934;8.656;2023-04-01T19:05:12;1.10;;;0.30;;
24559;SDS011;12727;49.934;8.656;2023-04-01T19:07:48;0.98;;;0.38;;
24559;SDS011;12727;49.934;8.656;2023-04-01T19:16:28;0.60;;;0.30;;
24559;SDS011;12727;49.934;8.656;2023-04-01T19:27:50;2.15;;;0.57;;
24559;SDS011;12727;49.934;8.656;2023-04-01T19:35:56;1.58;;;0.45;;
24559;SDS011;12727;49.934;8.656;2023-04-01T19:38:52;2.00;;;0.40;;
24559;SDS011;12727;49.934;8.656;2023-04-01T19:46:48;1.85;;;0.40;;
24559;SDS011;12727;49.934;8.656;2023-04-01T19:51:50;1.02;;;0.50;;
24559;SDS011;12727;49.934;8.656;2023-04-01T19:54:45;1.08;;;0.38;;
24559;SDS011;12727;49.934;8.656;2023-04-01T19:57:38;3.63;;;0.70;;
24559;SDS011;12727;49.934;8.656;2023-04-01T20:00:28;1.50;;;0.40;;
24559;SDS011;12727;49.934;8.656;2023-04-01T20:03:03;0.63;;;0.30;;
24559;SDS011;12727;49.934;8.656;2023-04-01T20:08:21;0.98;;;0.60;;
24559;SDS011;12727;49.934;8.656;2023-04-01T20:16:18;0.95;;;0.40;;
24559;SDS011;12727;49.934;8.656;2023-04-01T20:21:28;3.20;;;0.47;;
24559;SDS011;12727;49.934;8.656;2023-04-01T20:26:39;0.65;;;0.40;;
24559;SDS011;12727;49.934;8.656;2023-04-01T20:31:40;1.77;;;0.47;;
24559;SDS011;12727;49.934;8.656;2023-04-01T20:43:01;1.90;;;0.40;;
24559;SDS011;12727;49.934;8.656;2023-04-01T20:51:45;2.00;;;0.45;;
24559;SDS011;12727;49.934;8.656;2023-04-01T20:57:31;1.80;;;0.80;;
24559;SDS011;12727;49.934;8.656;2023-04-01T21:03:18;0.88;;;0.60;;
24559;SDS011;12727;49.934;8.656;2023-04-01T21:06:09;2.20;;;0.52;;
24559;SDS011;12727;49.934;8.656;2023-04-01T21:08:59;2.22;;;0.47;;
24559;SDS011;12727;49.934;8.656;2023-04-01T21:11:51;0.93;;;0.40;;
24559;SDS011;12727;49.934;8.656;2023-04-01T21:17:08;2.17;;;0.70;;
24559;SDS011;12727;49.934;8.656;2023-04-01T21:19:45;0.68;;;0.40;;
24559;SDS011;12727;49.934;8.656;2023-04-01T21:22:49;1.98;;;0.52;;
24559;SDS011;12727;49.934;8.656;2023-04-01T21:25:39;2.40;;;0.50;;
24559;SDS011;12727;49.934;8.656;2023-04-01T21:39:06;3.80;;;0.57;;
24559;SDS011;12727;49.934;8.656;2023-04-01T21:41:51;1.67;;;0.52;;
24559;SDS011;12727;49.934;8.656;2023-04-01T21:49:53;1.48;;;0.60;;
24559;SDS011;12727;49.934;8.656;2023-04-01T21:57:56;1.77;;;0.55;;
24559;SDS011;12727;49.934;8.656;2023-04-01T22:03:58;1.15;;;0.60;;
24559;SDS011;12727;49.934;8.656;2023-04-01T22:06:53;2.13;;;1.00;;
24559;SDS011;12727;49.934;8.656;2023-04-01T22:09:36;1.02;;;0.70;;
24559;SDS011;12727;49.934;8.656;2023-04-01T22:17:32;0.75;;;0.45;;
24559;SDS011;12727;49.934;8.656;2023-04-01T22:23:08;1.40;;;0.70;;
24559;SDS011;12727;49.934;8.656;2023-04-01T22:26:02;2.22;;;0.80;;
24559;SDS011;12727;49.934;8.656;2023-04-01T22:29:00;1.60;;;0.60;;
24559;SDS011;12727;49.934;8.656;2023-04-01T22:31:59;0.90;;;0.50;;
24559;SDS011;12727;49.934;8.656;2023-04-01T22:37:53;1.40;;;0.60;;
24559;SDS011;12727;49.934;8.656;2023-04-01T22:40:24;2.67;;;0.60;;
24559;SDS011;12727;49.934;8.656;2023-04-01T22:46:07;1.77;;;0.95;;
24559;SDS011;12727;49.934;8.656;2023-04-01T22:56:35;2.15;;;0.70;;
24559;SDS011;12727;49.934;8.656;2023-04-01T23:01:54;1.67;;;0.80;;
24559;SDS011;12727;49.934;8.656;2023-04-01T23:04:24;3.05;;;0.80;;
24559;SDS011;12727;49.934;8.656;2023-04-01T23:06:59;2.75;;;0.73;;
24559;SDS011;12727;49.934;8.656;2023-04-01T23:09:33;1.45;;;0.88;;
24559;SDS011;12727;49.934;8.656;2023-04-01T23:12:05;1.60;;;0.90;;
24559;SDS011;12727;49.934;8.656;2023-04-01T23:14:35;1.60;;;0.90;;
24559;SDS011;12727;49.934;8.656;2023-04-01T23:22:16;3.33;;;1.20;;
24559;SDS011;12727;49.934;8.656;2023-04-01T23:25:01;1.40;;;0.95;;
24559;SDS011;12727;49.934;8.656;2023-04-01T23:27:37;3.78;;;1.25;;
24559;SDS011;12727;49.934;8.656;2023-04-01T23:35:49;1.80;;;1.40;;
24559;SDS011;12727;49.934;8.656;2023-04-01T23:38:25;1.90;;;1.40;;
24559;SDS011;12727;49.934;8.656;2023-04-01T23:40:52;2.58;;;1.40;;
24559;SDS011;12727;49.934;8.656;2023-04-01T23:43:26;3.00;;;1.65;;
24559;SDS011;12727;49.934;8.656;2023-04-01T23:45:56;2.10;;;1.40;;
24559;SDS011;12727;49.934;8.656;2023-04-01T23:48:26;3.53;;;1.40;;
24559;SDS011;12727;49.934;8.656;2023-04-01T23:50:56;2.65;;;1.35;;
24559;SDS011;12727;49.934;8.656;2023-04-01T23:53:28;3.00;;;1.80;;
24559;SDS011;12727;49.934;8.656;2023-04-01T23:55:57;3.03;;;1.83;;
24559;SDS011;12727;49.934;8.656;2023-04-01T23:58:24;5.32;;;2.40;;
